| time (UTC) | temp C | wind direction | speed KPH | gust KPH | rain 1hr cm | rain 24hr cm | rain mn cm | humidity % | barometer mb |
| 20260504235123 | 25 | 117 | 0.0 | 1.6 | 0.00 | 0.36 | 0.36 | 66 | 999.3 |
| 20260504234620 | 25 | 94 | 0.0 | 0.0 | 0.00 | 0.36 | 0.36 | 52 | 999.2 |
| 20260504234118 | 24 | 352 | 4.8 | 11.3 | 0.00 | 0.36 | 0.36 | 58 | 999.3 |
| 20260504233613 | 24 | 208 | 0.0 | 1.6 | 0.00 | 0.36 | 0.36 | 61 | 999.3 |
| 20260504233109 | 24 | 100 | 8.0 | 14.5 | 0.00 | 0.36 | 0.36 | 55 | 999.3 |
| 20260504232607 | 24 | 76 | 3.2 | 4.8 | 0.00 | 0.36 | 0.36 | 53 | 999.4 |
| 20260504232105 | 24 | 121 | 3.2 | 3.2 | 0.00 | 0.36 | 0.36 | 58 | 999.5 |
| 20260504231601 | 25 | 21 | 1.6 | 3.2 | 0.00 | 0.36 | 0.36 | 67 | 999.5 |
| 20260504231057 | 25 | 177 | 4.8 | 9.7 | 0.00 | 0.36 | 0.36 | 52 | 999.4 |
| 20260504230553 | 25 | 354 | 1.6 | 1.6 | 0.00 | 0.36 | 0.36 | 61 | 999.5 |
| 20260504230052 | 25 | 119 | 0.0 | 1.6 | 0.00 | 0.36 | 0.36 | 56 | 999.7 |
| 20260504225549 | 25 | 97 | 4.8 | 8.0 | 0.00 | 0.36 | 0.36 | 58 | 999.4 |
| 20260504225046 | 25 | 233 | 1.6 | 3.2 | 0.00 | 0.36 | 0.36 | 55 | 999.7 |
| 20260504224542 | 25 | 233 | 8.0 | 9.7 | 0.00 | 0.36 | 0.36 | 52 | 999.7 |
| 20260504224040 | 25 | 209 | 3.2 | 3.2 | 0.00 | 0.36 | 0.36 | 53 | 999.6 |
| 20260504223537 | 26 | 71 | 3.2 | 3.2 | 0.00 | 0.36 | 0.36 | 65 | 999.7 |
| 20260504223032 | 26 | 190 | 1.6 | 3.2 | 0.00 | 0.36 | 0.36 | 59 | 999.7 |
| 20260504222529 | 26 | 65 | 4.8 | 8.0 | 0.00 | 0.36 | 0.36 | 47 | 999.5 |
| 20260504222027 | 26 | 2 | 1.6 | 3.2 | 0.00 | 0.36 | 0.36 | 58 | 999.7 |
| 20260504221524 | 26 | 72 | 6.4 | 9.7 | 0.00 | 0.36 | 0.36 | 56 | 999.6 |
| 20260504221020 | 26 | 257 | 4.8 | 4.8 | 0.00 | 0.36 | 0.36 | 66 | 999.4 |
| 20260504220517 | 26 | 162 | 3.2 | 4.8 | 0.00 | 0.36 | 0.36 | 63 | 999.8 |
| 20260504220014 | 25 | 220 | 4.8 | 8.0 | 0.00 | 0.36 | 0.36 | 63 | 999.7 |
| 20260504215510 | 26 | 96 | 1.6 | 3.2 | 0.00 | 0.36 | 0.36 | 65 | 999.8 |
| 20260504215008 | 25 | 72 | 8.0 | 11.3 | 0.00 | 0.36 | 0.36 | 55 | 999.6 |
| 20260504214504 | 25 | 31 | 4.8 | 8.0 | 0.00 | 0.36 | 0.36 | 65 | 999.6 |
| 20260504214001 | 25 | 143 | 1.6 | 1.6 | 0.00 | 0.36 | 0.36 | 84 | 999.6 |
| 20260504213456 | 25 | 208 | 0.0 | 0.0 | 0.00 | 0.36 | 0.36 | 79 | 999.4 |
| 20260504212954 | 25 | 114 | 0.0 | 0.0 | 0.00 | 0.36 | 0.36 | 76 | 999.3 |
| 20260504212450 | 25 | 59 | 1.6 | 1.6 | 0.00 | 0.36 | 0.36 | 82 | 999.3 |
| 20260504211948 | 25 | 67 | 1.6 | 1.6 | 0.00 | 0.36 | 0.36 | 82 | 999.4 |
| 20260504211444 | 25 | 50 | 0.0 | 1.6 | 0.00 | 0.36 | 0.36 | 84 | 999.4 |
| 20260504210942 | 25 | 72 | 0.0 | 0.0 | 0.00 | 0.36 | 0.36 | 86 | 999.6 |
| 20260504210438 | 24 | 61 | 1.6 | 1.6 | 0.00 | 0.36 | 0.36 | 87 | 999.6 |
| 20260504205935 | 23 | 80 | 0.0 | 0.0 | 0.00 | 0.36 | 0.36 | 87 | 999.8 |
| 20260504205433 | 23 | 74 | 0.0 | 0.0 | 0.00 | 0.36 | 0.36 | 89 | 999.7 |
| 20260504204931 | 23 | 76 | 0.0 | 0.0 | 0.00 | 0.36 | 0.36 | 90 | 1000.1 |
| 20260504204429 | 24 | 69 | 1.6 | 1.6 | 0.00 | 0.36 | 0.36 | 89 | 1000.0 |
| 20260504203928 | 23 | 91 | 0.0 | 0.0 | 0.00 | 0.36 | 0.36 | 89 | 1000.1 |
| 20260504203425 | 23 | 92 | 0.0 | 0.0 | 0.00 | 0.36 | 0.36 | 88 | 1000.1 |
| 20260504202921 | 22 | 108 | 1.6 | 1.6 | 0.00 | 0.36 | 0.36 | 86 | 1000.3 |
| 20260504202418 | 21 | 86 | 0.0 | 0.0 | 0.00 | 0.36 | 0.36 | 91 | 1000.2 |
| 20260504201915 | 21 | 104 | 0.0 | 1.6 | 0.00 | 0.36 | 0.36 | 95 | 1000.3 |
| 20260504201412 | 20 | 91 | 0.0 | 1.6 | 0.00 | 0.36 | 0.36 | 95 | 1000.2 |
| 20260504200909 | 20 | 81 | 0.0 | 0.0 | 0.00 | 0.36 | 0.36 | 96 | 1000.3 |
| 20260504200406 | 20 | 108 | 0.0 | 1.6 | 0.00 | 0.36 | 0.36 | 95 | 1000.3 |
| 20260504195903 | 18 | 91 | 0.0 | 0.0 | 0.00 | 0.36 | 0.36 | 95 | 1000.8 |
| 20260504195358 | 18 | 109 | 1.6 | 1.6 | 0.18 | 0.36 | 0.36 | 92 | 1001.2 |
| 20260504194855 | 18 | 111 | 0.0 | 0.0 | 1.98 | 0.36 | 0.36 | 87 | 1001.2 |
| 20260504194351 | 19 | 186 | 6.4 | 8.0 | 1.98 | 0.33 | 0.33 | 86 | 1002.7 |
| 20260504193847 | 21 | 356 | 1.6 | 3.2 | 0.18 | 0.03 | 0.03 | 82 | 1002.4 |
| 20260504193344 | 23 | 58 | 0.0 | 1.6 | 0.00 | 0.00 | 0.00 | 68 | 1001.3 |
| 20260504192843 | 24 | 63 | 1.6 | 3.2 | 0.00 | 0.00 | 0.00 | 55 | 1001.4 |
| 20260504192340 | 25 | 245 | 3.2 | 3.2 | 0.00 | 0.00 | 0.00 | 52 | 1001.0 |
| 20260504191839 | 25 | 154 | 3.2 | 3.2 | 0.00 | 0.00 | 0.00 | 52 | 1000.9 |
| 20260504191337 | 25 | 210 | 3.2 | 4.8 | 0.00 | 0.00 | 0.00 | 51 | 1000.9 |
| 20260504190832 | 25 | 67 | 1.6 | 1.6 | 0.00 | 0.00 | 0.00 | 50 | 1000.8 |
| 20260504190328 | 25 | 83 | 1.6 | 1.6 | 0.00 | 0.00 | 0.00 | 50 | 1001.0 |
| 20260504185825 | 25 | 272 | 3.2 | 4.8 | 0.00 | 0.00 | 0.00 | 56 | 1000.8 |
| 20260504185322 | 25 | 90 | 0.0 | 0.0 | 0.00 | 0.00 | 0.00 | 57 | 1000.9 |
| 20260504184818 | 25 | 293 | 4.8 | 8.0 | 0.00 | 0.00 | 0.00 | 46 | 1001.2 |
| 20260504184314 | -17 | 77 | 3.2 | 3.2 | 0.00 | 0.00 | 0.00 | 1001.0 | |
| 20260504183809 | -17 | 72 | 0.0 | 0.0 | 0.00 | 0.00 | 0.00 | 1000.9 | |
| 20260504183307 | -17 | 137 | 1.6 | 3.2 | 0.00 | 0.00 | 0.00 | 1001.1 | |
| 20260504182805 | -17 | 45 | 0.0 | 0.0 | 0.00 | 0.00 | 0.00 | 1001.2 | |
| 20260504182304 | -17 | 32 | 3.2 | 3.2 | 0.00 | 0.00 | 0.00 | 1001.3 | |
| 20260504181759 | -17 | 55 | 1.6 | 1.6 | 0.00 | 0.00 | 0.00 | 1001.1 | |
| 20260504181256 | -17 | 102 | 1.6 | 1.6 | 0.00 | 0.00 | 0.00 | 1001.2 | |
| 20260504180755 | -17 | 90 | 0.0 | 0.0 | 0.00 | 0.00 | 0.00 | 1001.4 | |
| 20260504180254 | -17 | 335 | 1.6 | 1.6 | 0.00 | 0.00 | 0.00 | 1001.1 | |
| 20260504175751 | -17 | 191 | 3.2 | 3.2 | 0.00 | 0.00 | 0.00 | 1001.2 | |
| 20260504175248 | -17 | 141 | 1.6 | 1.6 | 0.00 | 0.00 | 0.00 | 1001.7 | |
| 20260504174745 | -17 | 146 | 3.2 | 3.2 | 0.00 | 0.00 | 0.00 | 1001.7 | |
| 20260504174243 | -17 | 189 | 4.8 | 4.8 | 0.00 | 0.00 | 0.00 | 1001.4 | |
| 20260504173739 | -17 | 202 | 3.2 | 3.2 | 0.00 | 0.00 | 0.00 | 1001.7 | |
| 20260504173237 | -17 | 210 | 1.6 | 1.6 | 0.00 | 0.00 | 0.00 | 1001.8 | |
| 20260504172733 | -17 | 137 | 4.8 | 4.8 | 0.00 | 0.00 | 0.00 | 1001.8 | |
| 20260504172230 | -17 | 80 | 1.6 | 1.6 | 0.00 | 0.00 | 0.00 | 1001.8 | |
| 20260504171726 | -17 | 171 | 3.2 | 3.2 | 0.00 | 0.00 | 0.00 | 1002.1 | |
| 20260504171223 | -17 | 3 | 1.6 | 3.2 | 0.00 | 0.00 | 0.00 | 1002.0 | |
| 20260504170720 | -17 | 169 | 4.8 | 4.8 | 0.00 | 0.00 | 0.00 | 1002.3 | |
| 20260504170217 | -17 | 117 | 0.0 | 1.6 | 0.00 | 0.00 | 0.00 | 1002.5 | |
| 20260504160136 | -17 | 77 | 0.0 | 0.0 | 0.00 | 0.00 | 0.00 | 1003.8 | |
| 20260504151103 | -17 | 72 | 0.0 | 0.0 | 0.00 | 0.00 | 0.00 | 1003.9 | |
| 20260504150601 | -17 | 34 | 3.2 | 3.2 | 0.00 | 0.00 | 0.00 | 1003.9 | |
| 20260504141026 | -17 | 59 | 0.0 | 1.6 | 0.00 | 0.00 | 0.00 | 1003.9 | |
| 20260504140523 | -17 | 94 | 1.6 | 1.6 | 0.00 | 0.00 | 0.00 | 1003.9 | |
| 20260504130447 | -17 | 88 | 0.0 | 0.0 | 0.00 | 0.00 | 0.00 | 1004.6 | |
| 20260504110329 | -17 | 89 | 0.0 | 0.0 | 0.00 | 0.00 | 0.00 | 1005.0 | |
| 20260504100245 | -17 | 94 | 0.0 | 0.0 | 0.00 | 0.00 | 0.00 | 1004.6 | |
| 20260504081639 | -17 | 79 | 0.0 | 0.0 | 0.00 | 0.00 | 0.00 | 1004.1 | |
| 20260504081135 | -17 | 81 | 0.0 | 0.0 | 0.00 | 0.00 | 0.00 | 1004.3 | |
| 20260504080632 | -17 | 95 | 0.0 | 0.0 | 0.00 | 0.00 | 0.00 | 1004.3 | |
| 20260504080128 | -17 | 83 | 0.0 | 0.0 | 0.00 | 0.00 | 0.00 | 1004.3 | |
| 20260504050444 | -17 | 68 | 0.0 | 0.0 | 0.00 | 0.00 | 0.00 | 1004.9 | |
| 20260504045941 | -17 | 66 | 0.0 | 0.0 | 0.00 | 0.00 | 0.00 | 1005.0 | |
| 20260504045437 | -17 | 79 | 0.0 | 0.0 | 0.00 | 0.00 | 0.00 | 1005.0 | |
| 20260504044933 | -17 | 49 | 1.6 | 1.6 | 0.00 | 0.00 | 0.00 | 1005.4 | |
| 20260504044431 | -17 | 59 | 0.0 | 0.0 | 0.00 | 0.00 | 0.00 | 1005.2 | |
| 20260504043928 | -17 | 82 | 0.0 | 0.0 | 0.00 | 0.00 | 0.00 | 1005.4 | |
| 20260504043425 | -17 | 78 | 0.0 | 0.0 | 0.00 | 0.00 | 0.00 | 1005.4 | |
| 20260504042918 | -17 | 89 | 0.0 | 0.0 | 0.00 | 0.00 | 0.00 | 1005.6 | |
| 20260504042414 | -17 | 80 | 0.0 | 0.0 | 0.00 | 0.00 | 0.00 | 1005.6 | |
| 20260504041910 | -17 | 52 | 0.0 | 1.6 | 0.00 | 0.00 | 0.00 | 1005.6 | |
| 20260504041407 | -17 | 56 | 0.0 | 0.0 | 0.00 | 0.00 | 0.00 | 1005.7 | |
| 20260504040903 | -17 | 63 | 0.0 | 0.0 | 0.00 | 0.00 | 0.00 | 1005.8 | |
| 20260504040400 | -17 | 77 | 0.0 | 0.0 | 0.00 | 0.00 | 0.00 | 1005.9 | |
| 20260504035855 | -17 | 37 | 0.0 | 0.0 | 0.00 | 0.00 | 0.00 | 1005.8 | |
| 20260504035353 | -17 | 75 | 0.0 | 0.0 | 0.00 | 0.00 | 0.00 | 1005.8 | |
| 20260504034849 | -17 | 74 | 0.0 | 0.0 | 0.00 | 0.00 | 0.00 | 1006.0 | |
| 20260504034347 | -17 | 81 | 0.0 | 0.0 | 0.00 | 0.00 | 0.00 | 1006.2 | |
| 20260504033844 | -17 | 81 | 0.0 | 0.0 | 0.00 | 0.00 | 0.00 | 1006.4 | |
| 20260504033342 | -17 | 66 | 0.0 | 0.0 | 0.00 | 0.00 | 0.00 | 1006.5 | |
| 20260504032838 | -17 | 66 | 0.0 | 0.0 | 0.00 | 0.00 | 0.00 | 1006.3 | |
| 20260504032336 | -17 | 68 | 0.0 | 0.0 | 0.00 | 0.00 | 0.00 | 1006.6 | |
| 20260504031832 | -17 | 57 | 0.0 | 0.0 | 0.00 | 0.00 | 0.00 | 1006.3 | |
| 20260504031330 | -17 | 74 | 0.0 | 0.0 | 0.00 | 0.00 | 0.00 | 1006.2 | |
| 20260504030826 | -17 | 50 | 0.0 | 0.0 | 0.00 | 0.00 | 0.00 | 1006.0 | |
| 20260504030323 | -17 | 81 | 0.0 | 0.0 | 0.00 | 0.00 | 0.00 | 1006.0 | |
| 20260504025819 | -17 | 64 | 0.0 | 0.0 | 0.00 | 0.00 | 0.00 | 1006.0 | |
| 20260504025317 | -17 | 81 | 0.0 | 0.0 | 0.00 | 0.00 | 0.00 | 1006.1 | |
| 20260504024813 | -17 | 70 | 0.0 | 0.0 | 0.00 | 0.00 | 0.00 | 1006.2 | |
| 20260504024310 | -17 | 75 | 0.0 | 0.0 | 0.00 | 0.00 | 0.00 | 1005.9 | |
| 20260504023806 | -17 | 71 | 0.0 | 0.0 | 0.00 | 0.00 | 0.00 | 1006.3 | |
| 20260504023303 | -17 | 54 | 1.6 | 1.6 | 0.00 | 0.00 | 0.00 | 1006.0 | |
| 20260504022759 | -17 | 75 | 1.6 | 1.6 | 0.00 | 0.00 | 0.00 | 1006.2 | |
| 20260504022256 | -17 | 68 | 0.0 | 0.0 | 0.00 | 0.00 | 0.00 | 1006.0 | |
| 20260504021752 | -17 | 73 | 0.0 | 1.6 | 0.00 | 0.00 | 0.00 | 1006.2 | |
| 20260504021250 | -17 | 75 | 0.0 | 0.0 | 0.00 | 0.00 | 0.00 | 1006.1 | |
| 20260504020747 | -17 | 59 | 0.0 | 0.0 | 0.00 | 0.00 | 0.00 | 1006.3 | |
| 20260504020243 | -17 | 70 | 0.0 | 0.0 | 0.00 | 0.00 | 0.00 | 1006.0 | |
| 20260504015739 | -17 | 74 | 0.0 | 0.0 | 0.00 | 0.00 | 0.00 | 1006.3 | |
| 20260504015236 | -17 | 71 | 0.0 | 0.0 | 0.00 | 0.00 | 0.00 | 1006.1 | |
| 20260504014731 | -17 | 67 | 0.0 | 0.0 | 0.00 | 0.00 | 0.00 | 1005.8 | |
| 20260504014228 | -17 | 63 | 0.0 | 0.0 | 0.00 | 0.00 | 0.00 | 1005.9 | |
| 20260504013726 | -17 | 59 | 1.6 | 1.6 | 0.00 | 0.00 | 0.00 | 1005.9 | |
| 20260504013224 | -17 | 65 | 0.0 | 1.6 | 0.00 | 0.00 | 0.00 | 1006.1 | |
| 20260504012720 | -17 | 71 | 0.0 | 0.0 | 0.00 | 0.00 | 0.00 | 1006.0 | |
| 20260504012218 | -17 | 58 | 1.6 | 1.6 | 0.00 | 0.00 | 0.00 | 1005.9 | |
| 20260504011714 | -17 | 73 | 0.0 | 0.0 | 0.00 | 0.00 | 0.00 | 1005.8 | |
| 20260504011211 | -17 | 62 | 0.0 | 1.6 | 0.00 | 0.00 | 0.00 | 1005.9 | |
| 20260504010707 | -17 | 61 | 1.6 | 1.6 | 0.00 | 0.00 | 0.00 | 1006.0 | |
| 20260504010203 | -17 | 70 | 0.0 | 0.0 | 0.00 | 0.00 | 0.00 | 1006.0 | |
| 20260504005700 | -17 | 75 | 0.0 | 0.0 | 0.00 | 0.00 | 0.00 | 1005.7 | |
| 20260504005157 | -17 | 70 | 0.0 | 0.0 | 0.00 | 0.00 | 0.00 | 1005.8 | |
| 20260504004655 | -17 | 80 | 0.0 | 0.0 | 0.00 | 0.00 | 0.00 | 1005.7 | |
| 20260504004151 | -17 | 85 | 0.0 | 0.0 | 0.00 | 0.00 | 0.00 | 1005.6 | |
| 20260504003648 | -17 | 82 | 0.0 | 0.0 | 0.00 | 0.00 | 0.00 | 1005.8 | |
| 20260504003144 | -17 | 79 | 0.0 | 0.0 | 0.00 | 0.00 | 0.00 | 1005.5 | |
| 20260504002641 | -17 | 91 | 0.0 | 0.0 | 0.00 | 0.00 | 0.00 | 1005.7 | |
| 20260504002139 | -17 | 101 | 0.0 | 0.0 | 0.00 | 0.00 | 0.00 | 1005.9 | |
| 20260504001637 | -17 | 120 | 0.0 | 1.6 | 0.00 | 0.00 | 0.00 | 1005.8 | |
| 20260504001132 | -17 | 41 | 1.6 | 3.2 | 0.00 | 0.00 | 0.00 | 1005.8 | |
| 20260504000630 | -17 | 68 | 3.2 | 3.2 | 0.00 | 0.00 | 0.00 | 1005.8 | |
| 20260504000127 | -17 | 108 | 1.6 | 1.6 | 0.00 | 0.00 | 0.00 | 1005.7 | |
| 20260503235625 | -17 | 180 | 0.0 | 1.6 | 0.00 | 0.00 | 0.00 | 1005.8 |